createdAt,value
2022-07-28T00:02:25.937Z,2.40
2022-07-28T00:07:31.013Z,2.63
2022-07-28T00:12:34.529Z,2.30
2022-07-28T00:17:37.987Z,2.50
2022-07-28T00:22:44.918Z,2.60
2022-07-28T00:27:48.606Z,2.50
2022-07-28T00:32:52.193Z,2.70
2022-07-28T00:37:57.090Z,2.47
2022-07-28T00:43:00.540Z,2.50
2022-07-28T00:48:04.073Z,2.73
2022-07-28T00:53:09.623Z,2.60
2022-07-28T00:58:13.057Z,2.73
2022-07-28T01:03:16.787Z,2.50
2022-07-28T01:08:37.631Z,2.50
2022-07-28T01:13:47.865Z,2.50
2022-07-28T01:18:56.620Z,2.60
2022-07-28T01:24:11.855Z,2.63
2022-07-28T01:29:46.802Z,2.10
2022-07-28T01:34:57.353Z,2.60
2022-07-28T01:40:06.602Z,2.50
2022-07-28T01:45:12.166Z,2.37
2022-07-28T01:50:19.769Z,2.30
2022-07-28T01:55:25.233Z,2.33
2022-07-28T02:00:30.253Z,3.00
2022-07-28T02:05:36.770Z,2.20
2022-07-28T02:10:44.127Z,2.30
2022-07-28T02:15:48.277Z,2.63
2022-07-28T02:20:54.430Z,2.40
2022-07-28T02:26:00.356Z,2.73
2022-07-28T02:31:10.378Z,2.60
2022-07-28T02:36:20.909Z,2.50
2022-07-28T02:41:27.772Z,2.33
2022-07-28T02:46:40.228Z,2.87
2022-07-28T02:51:46.927Z,2.73
2022-07-28T02:56:53.737Z,2.43
2022-07-28T03:01:58.139Z,2.70
2022-07-28T03:07:03.106Z,2.80
2022-07-28T03:12:07.859Z,2.60
2022-07-28T03:17:11.431Z,2.73
2022-07-28T03:22:16.832Z,2.73
2022-07-28T03:27:27.488Z,2.80
2022-07-28T03:32:32.786Z,2.60
2022-07-28T03:37:42.162Z,2.40
2022-07-28T03:42:47.938Z,2.33
2022-07-28T03:47:52.614Z,2.77
2022-07-28T03:52:59.004Z,2.20
2022-07-28T03:58:02.512Z,2.77
2022-07-28T04:03:06.160Z,2.77
2022-07-28T04:08:32.297Z,2.53
2022-07-28T04:13:37.325Z,2.47
2022-07-28T04:18:40.997Z,2.47
2022-07-28T04:23:45.976Z,2.97
2022-07-28T04:28:49.512Z,2.67
2022-07-28T04:33:52.995Z,2.60
2022-07-28T04:38:59.573Z,3.00
2022-07-28T04:44:03.281Z,2.50
2022-07-28T04:49:06.781Z,3.10
2022-07-28T04:54:12.098Z,3.07
2022-07-28T04:59:16.285Z,3.47
2022-07-28T05:04:21.147Z,3.50
2022-07-28T05:09:26.347Z,3.20
2022-07-28T05:14:29.982Z,3.40
2022-07-28T05:19:33.409Z,3.50
2022-07-28T05:24:38.297Z,3.90
2022-07-28T05:29:47.252Z,4.23
2022-07-28T05:34:51.393Z,4.40
2022-07-28T05:39:56.507Z,4.23
2022-07-28T05:44:59.985Z,4.20
2022-07-28T05:50:03.728Z,4.30
2022-07-28T05:55:10.100Z,4.40
2022-07-28T06:00:16.127Z,4.10
2022-07-28T06:05:20.585Z,4.00
2022-07-28T06:10:27.110Z,3.80
2022-07-28T06:15:30.718Z,4.23
2022-07-28T06:20:34.350Z,3.70
2022-07-28T06:25:39.666Z,4.20
2022-07-28T06:30:43.395Z,4.20
2022-07-28T06:35:51.080Z,3.90
2022-07-28T06:40:56.663Z,3.57
2022-07-28T06:46:00.253Z,3.70
2022-07-28T06:51:03.698Z,4.37
2022-07-28T06:56:08.828Z,3.63
2022-07-28T07:01:17.468Z,3.97
2022-07-28T07:06:21.041Z,3.77
2022-07-28T07:11:27.015Z,3.53
2022-07-28T07:16:30.636Z,3.43
2022-07-28T07:21:34.270Z,3.47
2022-07-28T07:26:39.314Z,3.60
2022-07-28T07:31:42.784Z,3.00
2022-07-28T07:36:46.354Z,3.30
2022-07-28T07:41:51.341Z,3.83
2022-07-28T07:46:54.895Z,3.13
2022-07-28T07:51:58.504Z,3.13
2022-07-28T07:57:03.516Z,3.20
2022-07-28T08:02:07.574Z,3.37
2022-07-28T08:07:11.477Z,3.30
2022-07-28T08:12:16.959Z,3.20
2022-07-28T08:17:28.235Z,3.63
2022-07-28T08:22:31.899Z,3.00
2022-07-28T08:27:36.857Z,3.10
2022-07-28T08:32:40.440Z,3.00
2022-07-28T08:37:43.956Z,3.23
2022-07-28T08:42:54.138Z,3.07
2022-07-28T08:48:08.292Z,2.97
2022-07-28T08:53:15.239Z,2.83
2022-07-28T08:58:20.550Z,2.73
2022-07-28T09:03:24.605Z,2.90
2022-07-28T09:08:28.291Z,3.17
2022-07-28T09:13:33.239Z,3.10
2022-07-28T09:18:36.968Z,3.27
2022-07-28T09:23:45.304Z,3.27
2022-07-28T09:28:52.381Z,3.90
2022-07-28T09:33:58.187Z,3.60
2022-07-28T09:39:01.774Z,3.27
2022-07-28T09:44:21.883Z,3.60
2022-07-28T09:49:43.121Z,3.50
2022-07-28T09:55:01.723Z,3.30
2022-07-28T10:00:09.327Z,3.00
2022-07-28T10:05:16.640Z,3.40
2022-07-28T10:10:22.744Z,3.00
2022-07-28T10:15:50.713Z,3.47
2022-07-28T10:20:55.507Z,3.00
2022-07-28T10:26:00.583Z,3.00
2022-07-28T10:31:10.279Z,2.73
2022-07-28T10:36:14.480Z,2.80
2022-07-28T10:41:20.547Z,2.60
2022-07-28T10:46:26.920Z,2.60
2022-07-28T10:51:31.074Z,2.55
2022-07-28T10:56:46.575Z,2.65
2022-07-28T11:01:53.101Z,2.53
2022-07-28T11:07:11.571Z,2.63
2022-07-28T11:12:16.170Z,2.65
2022-07-28T11:17:24.641Z,2.72
2022-07-28T11:22:36.370Z,2.78
2022-07-28T11:28:01.876Z,2.80
2022-07-28T11:33:07.664Z,2.70
2022-07-28T11:38:12.540Z,2.15
2022-07-28T11:43:39.565Z,2.45
2022-07-28T11:48:45.893Z,2.30
2022-07-28T11:53:51.186Z,2.65
2022-07-28T11:58:59.401Z,2.30
2022-07-28T12:04:13.375Z,2.25
2022-07-28T12:09:23.292Z,2.40
2022-07-28T12:14:30.208Z,2.40
2022-07-28T12:19:35.012Z,2.60
2022-07-28T12:24:44.692Z,2.45
2022-07-28T12:29:57.858Z,2.30
2022-07-28T12:35:02.684Z,2.10
2022-07-28T12:40:09.117Z,2.03
2022-07-28T12:45:13.435Z,1.90
2022-07-28T12:50:20.313Z,1.65
2022-07-28T12:55:27.105Z,2.20
2022-07-28T13:00:33.599Z,1.98
2022-07-28T13:05:57.682Z,2.08
2022-07-28T13:11:01.154Z,2.10
2022-07-28T13:16:15.802Z,1.90
2022-07-28T13:21:58.135Z,1.90
2022-07-28T13:27:04.491Z,2.10
2022-07-28T13:32:08.641Z,2.38
2022-07-28T13:37:13.846Z,2.38
2022-07-28T13:42:17.263Z,2.60
2022-07-28T13:47:21.273Z,2.40
2022-07-28T13:52:34.641Z,2.60
2022-07-28T13:57:42.900Z,2.30
2022-07-28T14:02:48.818Z,2.30
2022-07-28T14:07:53.838Z,2.40
2022-07-28T14:12:57.233Z,2.55
2022-07-28T14:18:00.775Z,2.83
2022-07-28T14:23:05.995Z,2.50
2022-07-28T14:28:09.397Z,2.70
2022-07-28T14:33:14.693Z,2.70
2022-07-28T14:43:43.169Z,2.83
2022-07-28T14:48:48.052Z,3.00
2022-07-28T14:53:52.975Z,3.15
2022-07-28T14:58:58.474Z,3.17
2022-07-28T15:04:01.960Z,3.17
2022-07-28T15:09:07.562Z,3.00
2022-07-28T15:14:11.444Z,3.15
2022-07-28T15:19:15.247Z,2.85
2022-07-28T15:24:22.468Z,3.00
2022-07-28T15:29:26.239Z,3.17
2022-07-28T15:34:36.713Z,3.40
2022-07-28T15:39:45.032Z,3.35
2022-07-28T15:44:49.657Z,2.95
2022-07-28T15:49:53.361Z,3.58
2022-07-28T15:54:58.469Z,3.85
2022-07-28T16:00:01.973Z,3.42
2022-07-28T16:05:06.288Z,3.97
2022-07-28T16:10:12.063Z,4.28
2022-07-28T16:15:15.714Z,3.47
2022-07-28T16:20:19.575Z,3.38
2022-07-28T16:25:24.669Z,3.25
2022-07-28T16:30:28.678Z,2.40
2022-07-28T16:35:34.046Z,2.60
2022-07-28T16:40:39.346Z,2.43
2022-07-28T16:45:42.855Z,3.13
2022-07-28T16:50:46.590Z,3.63
2022-07-28T16:55:51.616Z,3.50
2022-07-28T17:00:55.151Z,3.23
2022-07-28T17:05:59.176Z,3.67
2022-07-28T17:11:04.601Z,3.33
2022-07-28T17:16:08.425Z,3.87
2022-07-28T17:21:13.224Z,3.60
2022-07-28T17:31:43.641Z,3.40
2022-07-28T17:36:48.396Z,3.23
2022-07-28T17:41:53.425Z,3.03
2022-07-28T17:46:57.113Z,2.60
2022-07-28T17:52:00.932Z,2.43
2022-07-28T17:57:06.894Z,2.27
2022-07-28T18:02:11.011Z,3.10
2022-07-28T18:07:14.614Z,3.13
2022-07-28T18:12:19.515Z,2.83
2022-07-28T18:17:22.912Z,2.70
2022-07-28T18:22:26.313Z,2.90
2022-07-28T18:27:31.615Z,2.27
2022-07-28T18:32:35.176Z,2.00
2022-07-28T18:37:45.347Z,2.10
2022-07-28T18:42:51.843Z,2.40
2022-07-28T18:47:58.884Z,2.33
2022-07-28T18:53:02.681Z,2.27
2022-07-28T18:58:07.606Z,2.30
2022-07-28T19:03:11.114Z,1.80
2022-07-28T19:08:14.680Z,2.40
2022-07-28T19:13:22.024Z,2.17
2022-07-28T19:18:25.515Z,2.20
2022-07-28T19:23:30.408Z,2.07
2022-07-28T19:28:35.345Z,2.10
2022-07-28T19:33:43.585Z,2.20
2022-07-28T19:38:47.805Z,2.30
2022-07-28T19:43:52.733Z,2.40
2022-07-28T19:48:56.582Z,2.07
2022-07-28T19:54:00.691Z,2.00
2022-07-28T19:59:05.603Z,2.10
2022-07-28T20:04:09.185Z,2.37
2022-07-28T20:09:12.846Z,2.13
2022-07-28T20:14:18.611Z,2.07
2022-07-28T20:19:22.468Z,2.70
2022-07-28T20:24:25.918Z,3.10
2022-07-28T20:29:31.027Z,3.17
2022-07-28T20:34:34.455Z,2.93
2022-07-28T20:39:44.865Z,3.23
2022-07-28T20:44:50.821Z,3.00
2022-07-28T20:49:55.301Z,3.20
2022-07-28T20:54:58.885Z,3.40
2022-07-28T21:00:05.105Z,3.03
2022-07-28T21:05:09.311Z,2.97
2022-07-28T21:10:30.345Z,2.43
2022-07-28T21:15:35.382Z,2.60
2022-07-28T21:20:38.883Z,2.87
2022-07-28T21:25:45.176Z,2.57
2022-07-28T21:30:50.334Z,2.30
2022-07-28T21:35:53.921Z,2.60
2022-07-28T21:40:57.556Z,2.60
2022-07-28T21:46:02.935Z,2.70
2022-07-28T21:51:15.063Z,2.50
2022-07-28T21:56:27.300Z,2.10
2022-07-28T22:01:32.512Z,2.17
2022-07-28T22:06:39.079Z,2.53
2022-07-28T22:11:42.719Z,2.77
2022-07-28T22:16:47.857Z,2.70
2022-07-28T22:21:51.425Z,3.50
2022-07-28T22:26:57.875Z,2.83
2022-07-28T22:32:03.938Z,3.07
2022-07-28T22:37:12.922Z,2.53
2022-07-28T22:42:16.965Z,2.57
2022-07-28T22:47:22.061Z,2.40
2022-07-28T22:52:28.752Z,2.10
2022-07-28T22:57:32.908Z,2.50
2022-07-28T23:02:37.814Z,3.00
2022-07-28T23:07:52.873Z,3.07
2022-07-28T23:13:01.026Z,2.50
2022-07-28T23:18:05.929Z,2.90
2022-07-28T23:23:09.474Z,3.00
2022-07-28T23:28:13.424Z,3.23
2022-07-28T23:33:54.334Z,3.23
2022-07-28T23:38:41.991Z,3.33
2022-07-28T23:43:46.125Z,3.50
2022-07-28T23:48:51.256Z,2.90
2022-07-28T23:53:56.556Z,2.80
2022-07-28T23:59:00.266Z,3.23
